الصفحة الرئيسية
METAR-TAF:

METAR-TAF

مطار :

ترات, تايلاند

دائرة عرض: 12-16-28N, خط طول: 102-19-08E, ارتفاع: 32 متر

مراقبة الطقس الحالي

تاريخ ووقت الإصدار 6ساعات و 59 دقيقة قبل الساعة 11:00UTC
ريح 2 عقدة من الشمال/الشمال الشرقي
درجة الحرارة 26°درجة مئوية
الرطوبة 94%
ضغط 1009 hPa
الرؤية: 6000 متر
غيوم قليلة على ارتفاع 1800 قدم, مزنة ركامية.
غيوم مفككة على ارتفاع 2000 قدم
مطر خفيف

METAR: VTBO 051100Z 03002KT 6000 -RA FEW018CB BKN020 26/25 Q1009

زمن: 00:59 (17:59 UTC)

توقعات

تاريخ ووقت الإصدار 59 دقيقة قبل الساعة 17:00UTC
التوقعات صالحة من05 الساعة 18 UTC إلى 06 الساعة 18 UTC
ريح 8 عقدة من الشرق
الرؤية: 8000 متر
غيوم قليلة على ارتفاع 2000 قدم
غيوم متفرقة على ارتفاع 6000 قدم
مؤقت
من 05 الساعة 18 UTC إلى 05 الساعة 23 UTC
ريح 10 عقدة من الشرق تتزايد حتى 25 عقدة
الرؤية: 4000 متر
غيوم قليلة على ارتفاع 1800 قدم, مزنة ركامية.
غيوم متفرقة على ارتفاع 3500 قدم
غيوم مفككة على ارتفاع 8000 قدم
عاصفة رعدية, مطر

TAF: VTBO 051700Z 0518/0618 08008KT 8000 FEW020 SCT060 TEMPO 0518/0523 09010G25KT 4000 TSRA FEW018CB SCT035 BKN080

أرصاد الطقس والتوقعات من أكثر من 4000 مطار (تقارير الطقس للمطار METAR والتنبؤ بالطقس بالمطارTAF).

المحطات المتاحة هي النقط الصفراء والحمراء على الخريطة.

حرك المؤشر فوق النقطة لمعرفة اسم المحطة.

ثم انقر لمعرفة أرصاد وتوقعات الطقس.

لتغيير الخارطة: اضغط على الأزرار الخضراء مع رمز الصليب الأسود للتكبير. على الزر الأخضر مع شرطة للتصغير، أو على الأسهم الخضراء للخرائط المجاورة.


METAR-TAF: